createdAt,value
2022-10-09T00:01:15.371Z,3.03
2022-10-09T00:03:43.809Z,2.57
2022-10-09T00:06:12.181Z,2.30
2022-10-09T00:08:39.711Z,3.20
2022-10-09T00:11:07.813Z,2.40
2022-10-09T00:13:34.587Z,2.97
2022-10-09T00:16:06.049Z,2.73
2022-10-09T00:18:33.064Z,3.20
2022-10-09T00:20:59.416Z,2.60
2022-10-09T00:23:26.223Z,2.77
2022-10-09T00:25:56.031Z,4.03
2022-10-09T00:28:24.114Z,2.47
2022-10-09T00:30:50.991Z,2.30
2022-10-09T00:33:17.859Z,2.50
2022-10-09T00:35:44.177Z,3.57
2022-10-09T00:38:11.216Z,3.20
2022-10-09T00:40:38.621Z,2.47
2022-10-09T00:43:13.166Z,3.57
2022-10-09T00:45:44.915Z,2.33
2022-10-09T00:48:12.241Z,2.33
2022-10-09T00:50:41.886Z,2.57
2022-10-09T00:53:13.374Z,2.40
2022-10-09T00:55:40.140Z,2.60
2022-10-09T00:58:06.800Z,2.20
2022-10-09T01:00:33.133Z,2.80
2022-10-09T01:02:59.808Z,3.40
2022-10-09T01:05:42.944Z,2.60
2022-10-09T01:08:24.892Z,3.20
2022-10-09T01:11:04.178Z,2.87
2022-10-09T01:13:38.731Z,2.30
2022-10-09T01:16:20.362Z,2.47
2022-10-09T01:19:12.511Z,2.63
2022-10-09T01:21:46.579Z,3.40
2022-10-09T01:24:24.575Z,3.43
2022-10-09T01:26:55.879Z,2.63
2022-10-09T01:29:26.595Z,2.27
2022-10-09T01:31:54.119Z,3.47
2022-10-09T01:34:21.568Z,2.73
2022-10-09T01:36:48.539Z,2.80
2022-10-09T01:39:21.284Z,2.47
2022-10-09T01:41:50.837Z,2.67
2022-10-09T01:44:18.666Z,2.60
2022-10-09T01:46:45.775Z,2.47
2022-10-09T01:49:24.948Z,2.37
2022-10-09T01:52:00.420Z,2.87
2022-10-09T01:55:02.932Z,2.87
2022-10-09T01:57:37.272Z,3.60
2022-10-09T02:00:08.310Z,2.57
2022-10-09T02:02:35.580Z,3.03
2022-10-09T02:05:02.135Z,3.33
2022-10-09T02:07:31.397Z,2.83
2022-10-09T02:10:01.569Z,4.07
2022-10-09T02:12:31.785Z,2.90
2022-10-09T02:14:58.173Z,2.50
2022-10-09T02:17:30.755Z,3.27
2022-10-09T02:20:03.534Z,2.63
2022-10-09T02:22:31.410Z,3.10
2022-10-09T02:25:00.589Z,2.70
2022-10-09T02:27:27.987Z,2.60
2022-10-09T02:29:54.959Z,3.03
2022-10-09T02:32:21.627Z,2.80
2022-10-09T02:34:47.911Z,2.90
2022-10-09T02:37:14.668Z,3.70
2022-10-09T02:39:41.958Z,2.63
2022-10-09T02:42:08.259Z,3.20
2022-10-09T02:44:34.680Z,2.87
2022-10-09T02:47:01.217Z,2.90
2022-10-09T02:49:27.516Z,2.87
2022-10-09T02:51:53.820Z,2.53
2022-10-09T02:54:20.110Z,3.20
2022-10-09T02:56:46.417Z,3.00
2022-10-09T02:59:12.702Z,3.30
2022-10-09T03:01:39.165Z,2.90
2022-10-09T03:04:05.670Z,3.70
2022-10-09T03:06:32.812Z,3.27
2022-10-09T03:08:59.105Z,3.37
2022-10-09T03:11:26.408Z,3.10
2022-10-09T03:13:54.289Z,2.90
2022-10-09T03:16:23.759Z,3.17
2022-10-09T03:18:51.127Z,3.80
2022-10-09T03:21:20.042Z,4.63
2022-10-09T03:23:47.070Z,3.30
2022-10-09T03:26:16.463Z,3.20
2022-10-09T03:28:46.819Z,3.07
2022-10-09T03:31:33.097Z,3.40
2022-10-09T03:34:00.956Z,3.50
2022-10-09T03:36:27.235Z,3.30
2022-10-09T03:38:53.525Z,3.00
2022-10-09T03:41:19.810Z,3.47
2022-10-09T03:43:46.109Z,3.90
2022-10-09T03:46:12.672Z,3.57
2022-10-09T03:48:39.031Z,3.27
2022-10-09T03:51:05.483Z,3.50
2022-10-09T03:53:31.885Z,2.97
2022-10-09T03:55:58.423Z,3.67
2022-10-09T03:58:24.826Z,3.67
2022-10-09T04:00:52.758Z,5.13
2022-10-09T04:03:19.662Z,3.53
2022-10-09T04:05:47.094Z,4.37
2022-10-09T04:08:13.476Z,3.83
2022-10-09T04:10:39.798Z,3.80
2022-10-09T04:13:06.482Z,3.53
2022-10-09T04:15:32.835Z,3.43
2022-10-09T04:17:59.199Z,4.70
2022-10-09T04:20:25.570Z,3.57
2022-10-09T04:22:52.042Z,4.07
2022-10-09T04:25:18.439Z,4.83
2022-10-09T04:27:44.754Z,4.30
2022-10-09T04:30:11.348Z,3.67
2022-10-09T04:32:37.668Z,4.07
2022-10-09T04:35:04.632Z,3.80
2022-10-09T04:37:30.957Z,3.50
2022-10-09T04:39:57.246Z,3.40
2022-10-09T04:42:23.529Z,4.40
2022-10-09T04:44:49.853Z,3.90
2022-10-09T04:47:17.386Z,4.53
2022-10-09T04:49:43.680Z,4.10
2022-10-09T04:52:09.980Z,5.20
2022-10-09T04:54:36.255Z,4.90
2022-10-09T04:57:02.562Z,4.37
2022-10-09T04:59:29.109Z,4.53
2022-10-09T05:01:55.422Z,4.20
2022-10-09T05:04:21.764Z,3.73
2022-10-09T05:06:48.123Z,4.07
2022-10-09T05:09:14.419Z,4.03
2022-10-09T05:11:42.879Z,4.50
2022-10-09T05:14:09.762Z,4.10
2022-10-09T05:17:01.025Z,3.97
2022-10-09T05:19:23.172Z,4.03
2022-10-09T05:21:49.473Z,4.10
2022-10-09T05:24:15.763Z,4.93
2022-10-09T05:26:42.077Z,4.67
2022-10-09T05:29:08.400Z,5.13
2022-10-09T05:31:34.870Z,4.87
2022-10-09T05:34:01.968Z,4.60
2022-10-09T05:36:28.427Z,5.17
2022-10-09T05:38:55.572Z,4.77
2022-10-09T05:41:21.851Z,4.50
2022-10-09T05:43:49.581Z,4.27
2022-10-09T05:46:17.283Z,4.57
2022-10-09T05:48:45.699Z,4.67
2022-10-09T05:51:15.103Z,4.77
2022-10-09T05:53:42.603Z,5.00
2022-10-09T05:56:39.335Z,4.67
2022-10-09T05:59:11.152Z,4.00
2022-10-09T06:01:40.141Z,5.77
2022-10-09T06:04:10.773Z,5.30
2022-10-09T06:06:39.485Z,4.67
2022-10-09T06:09:07.043Z,4.50
2022-10-09T06:11:35.410Z,4.70
2022-10-09T06:14:05.354Z,4.80
2022-10-09T06:16:34.904Z,5.60
2022-10-09T06:19:02.358Z,5.40
2022-10-09T06:21:29.291Z,4.47
2022-10-09T06:23:58.573Z,4.50
2022-10-09T06:26:26.321Z,5.47
2022-10-09T06:28:52.941Z,4.50
2022-10-09T06:31:21.789Z,4.73
2022-10-09T06:33:50.062Z,4.60
2022-10-09T06:36:26.043Z,5.63
2022-10-09T06:38:53.135Z,4.87
2022-10-09T06:41:24.303Z,4.97
2022-10-09T06:43:51.796Z,5.93
2022-10-09T06:46:19.726Z,5.70
2022-10-09T06:48:46.372Z,5.13
2022-10-09T06:51:18.391Z,4.90
2022-10-09T06:53:50.106Z,5.10
2022-10-09T06:56:18.380Z,5.73
2022-10-09T06:58:45.089Z,5.87
2022-10-09T07:01:20.228Z,5.07
2022-10-09T07:03:52.188Z,6.23
2022-10-09T07:06:21.389Z,5.30
2022-10-09T07:08:50.724Z,5.90
2022-10-09T07:11:21.213Z,4.77
2022-10-09T07:13:50.688Z,4.27
2022-10-09T07:16:23.397Z,6.20
2022-10-09T07:18:50.325Z,5.23
2022-10-09T07:21:16.966Z,6.10
2022-10-09T07:23:43.642Z,6.20
2022-10-09T07:26:13.079Z,5.63
2022-10-09T07:28:41.076Z,5.60
2022-10-09T07:31:08.065Z,5.97
2022-10-09T07:33:34.560Z,5.13
2022-10-09T07:36:02.747Z,4.70
2022-10-09T07:38:29.527Z,4.70
2022-10-09T07:41:09.493Z,5.30
2022-10-09T07:43:37.413Z,4.87
2022-10-09T07:46:05.848Z,5.00
2022-10-09T07:48:33.969Z,5.50
2022-10-09T07:51:08.076Z,5.50
2022-10-09T07:53:36.038Z,6.73
2022-10-09T07:56:04.241Z,5.60
2022-10-09T07:58:30.960Z,4.87
2022-10-09T08:01:03.524Z,5.87
2022-10-09T08:03:29.847Z,5.17
2022-10-09T08:05:56.908Z,5.60
2022-10-09T08:08:23.219Z,5.60
2022-10-09T08:10:49.525Z,5.40
2022-10-09T08:13:16.582Z,5.27
2022-10-09T08:15:44.027Z,5.30
2022-10-09T08:18:11.593Z,5.10
2022-10-09T08:20:38.838Z,5.07
2022-10-09T08:23:06.059Z,4.70
2022-10-09T08:25:36.806Z,6.33
2022-10-09T08:28:04.707Z,6.03
2022-10-09T08:30:31.349Z,6.10
2022-10-09T08:32:57.657Z,5.87
2022-10-09T08:35:23.994Z,5.53
2022-10-09T08:37:50.539Z,6.33
2022-10-09T08:40:21.903Z,5.50
2022-10-09T08:42:59.833Z,5.90
2022-10-09T08:45:26.467Z,5.77
2022-10-09T08:48:00.995Z,6.27
2022-10-09T08:50:35.722Z,5.60
2022-10-09T08:53:19.261Z,5.43
2022-10-09T08:55:50.630Z,5.73
2022-10-09T08:58:20.030Z,6.03
2022-10-09T09:00:54.106Z,6.57
2022-10-09T09:03:53.385Z,7.00
2022-10-09T09:06:46.838Z,6.47
2022-10-09T09:09:44.143Z,6.40
2022-10-09T09:12:22.777Z,5.87
2022-10-09T09:14:49.005Z,5.10
2022-10-09T09:17:30.213Z,5.70
2022-10-09T09:20:21.120Z,6.17
2022-10-09T09:22:50.036Z,4.93
2022-10-09T09:25:22.875Z,5.53
2022-10-09T09:27:51.795Z,6.00
2022-10-09T09:30:27.710Z,6.00
2022-10-09T09:32:59.186Z,6.33
2022-10-09T09:35:50.233Z,5.80
2022-10-09T09:38:17.187Z,5.97
2022-10-09T09:40:47.332Z,6.23
2022-10-09T09:43:18.084Z,7.30
2022-10-09T09:45:45.781Z,7.60
2022-10-09T09:48:30.950Z,6.90
2022-10-09T09:51:16.025Z,6.33
2022-10-09T09:53:48.394Z,7.00
2022-10-09T09:56:15.677Z,5.90
2022-10-09T09:58:48.702Z,5.80
2022-10-09T10:01:24.345Z,6.50
2022-10-09T10:03:53.816Z,6.27
2022-10-09T10:06:25.701Z,6.50
2022-10-09T10:09:15.932Z,6.13
2022-10-09T10:12:03.760Z,6.30
2022-10-09T10:14:31.985Z,6.37
2022-10-09T10:17:00.616Z,5.87
2022-10-09T10:19:29.666Z,6.07
2022-10-09T10:22:01.549Z,6.20
2022-10-09T10:24:33.874Z,6.50
2022-10-09T10:27:09.577Z,7.87
2022-10-09T10:29:41.093Z,6.40
2022-10-09T10:32:38.220Z,6.47
2022-10-09T10:35:13.106Z,6.23
2022-10-09T10:38:03.902Z,6.00
2022-10-09T10:41:04.752Z,5.70
2022-10-09T10:43:38.815Z,5.90
2022-10-09T10:46:10.205Z,6.70
2022-10-09T10:48:42.777Z,6.90
2022-10-09T10:51:34.526Z,6.60
2022-10-09T10:54:19.596Z,6.63
2022-10-09T10:56:55.538Z,5.20
2022-10-09T10:59:39.751Z,5.90
2022-10-09T11:02:32.920Z,5.70
2022-10-09T11:05:02.544Z,5.90
2022-10-09T11:08:00.367Z,5.90
2022-10-09T11:10:59.508Z,6.20
2022-10-09T11:13:34.835Z,5.90
2022-10-09T11:16:18.852Z,6.60
2022-10-09T11:19:36.198Z,5.60
2022-10-09T11:22:20.990Z,6.33
2022-10-09T11:25:29.450Z,6.20
2022-10-09T11:28:03.670Z,5.30
2022-10-09T11:30:45.020Z,5.27
2022-10-09T11:33:22.891Z,5.17
2022-10-09T11:35:56.348Z,5.60
2022-10-09T11:38:29.676Z,5.33
2022-10-09T11:40:57.835Z,5.47
2022-10-09T11:43:27.057Z,5.70
2022-10-09T11:46:14.845Z,5.60
2022-10-09T11:48:48.090Z,5.47
2022-10-09T11:51:40.696Z,5.90
2022-10-09T11:54:13.263Z,6.07
2022-10-09T11:56:39.563Z,6.10
2022-10-09T11:59:07.832Z,6.50
2022-10-09T12:01:37.570Z,5.90
2022-10-09T12:04:13.205Z,5.57
2022-10-09T12:06:48.491Z,5.67
2022-10-09T12:09:35.080Z,5.40
2022-10-09T12:12:07.305Z,6.23
2022-10-09T12:14:36.861Z,6.60
2022-10-09T12:17:31.344Z,7.17
2022-10-09T12:20:20.260Z,6.70
2022-10-09T12:23:13.903Z,6.10
2022-10-09T12:25:43.747Z,5.07
2022-10-09T12:28:33.692Z,6.17
2022-10-09T12:31:03.287Z,6.50
2022-10-09T12:33:36.268Z,6.80
2022-10-09T12:36:13.309Z,7.47
2022-10-09T12:38:40.213Z,7.10
2022-10-09T12:41:17.941Z,6.90
2022-10-09T12:43:47.476Z,7.90
2022-10-09T12:46:13.906Z,8.63
2022-10-09T12:48:42.467Z,5.90
2022-10-09T12:51:23.084Z,6.37
2022-10-09T12:53:51.356Z,6.60
2022-10-09T12:56:26.853Z,5.93
2022-10-09T12:58:54.253Z,5.63
2022-10-09T13:01:21.728Z,6.40
2022-10-09T13:04:04.982Z,5.50
2022-10-09T13:06:44.086Z,6.60
2022-10-09T13:09:22.119Z,5.90
2022-10-09T13:11:55.576Z,5.60
2022-10-09T13:14:44.030Z,5.43
2022-10-09T13:17:24.700Z,5.43
2022-10-09T13:19:54.575Z,6.10
2022-10-09T13:22:23.602Z,5.50
2022-10-09T13:24:53.259Z,5.60
2022-10-09T13:27:21.381Z,6.27
2022-10-09T13:29:48.559Z,5.87
2022-10-09T13:32:16.877Z,5.90
2022-10-09T13:34:45.393Z,5.80
2022-10-09T13:37:13.959Z,6.40
2022-10-09T13:39:40.293Z,5.93
2022-10-09T13:42:06.887Z,4.80
2022-10-09T13:44:33.188Z,4.97
2022-10-09T13:47:00.082Z,5.20
2022-10-09T13:49:26.473Z,5.90
2022-10-09T13:51:52.827Z,5.10
2022-10-09T13:54:19.145Z,5.43
2022-10-09T13:56:45.434Z,4.60
2022-10-09T13:59:12.034Z,5.73
2022-10-09T14:01:38.372Z,5.40
2022-10-09T14:04:04.753Z,5.47
2022-10-09T14:06:34.186Z,4.83
2022-10-09T14:09:00.486Z,5.00
2022-10-09T14:11:26.796Z,5.60
2022-10-09T14:13:53.089Z,4.97
2022-10-09T14:16:19.380Z,5.53
2022-10-09T14:18:45.672Z,5.53
2022-10-09T14:21:15.256Z,4.90
2022-10-09T14:23:42.218Z,5.90
2022-10-09T14:26:08.875Z,4.90
2022-10-09T14:28:35.317Z,5.57
2022-10-09T14:31:07.653Z,5.17
2022-10-09T14:33:34.114Z,6.27
2022-10-09T14:36:11.658Z,5.40
2022-10-09T14:38:39.026Z,5.53
2022-10-09T14:41:05.962Z,4.87
2022-10-09T14:43:32.914Z,5.40
2022-10-09T14:46:03.359Z,5.10
2022-10-09T14:48:29.635Z,5.80
2022-10-09T14:50:55.932Z,4.87
2022-10-09T14:53:22.399Z,5.40
2022-10-09T14:55:48.689Z,5.70
2022-10-09T14:58:15.163Z,5.50
2022-10-09T15:00:46.453Z,5.63
2022-10-09T15:03:12.826Z,5.83
2022-10-09T15:05:39.122Z,5.70
2022-10-09T15:08:05.403Z,5.40
2022-10-09T15:10:34.237Z,6.50
2022-10-09T15:13:00.516Z,5.40
2022-10-09T15:15:30.312Z,5.90
2022-10-09T15:17:58.917Z,5.50
2022-10-09T15:20:25.205Z,5.23
2022-10-09T15:22:51.531Z,5.27
2022-10-09T15:25:17.889Z,5.47
2022-10-09T15:27:44.184Z,6.03
2022-10-09T15:30:11.123Z,5.37
2022-10-09T15:32:37.469Z,5.10
2022-10-09T15:35:03.999Z,5.43
2022-10-09T15:37:30.301Z,6.30
2022-10-09T15:39:56.667Z,6.17
2022-10-09T15:42:22.945Z,5.47
2022-10-09T15:44:49.257Z,5.73
2022-10-09T15:47:16.521Z,6.83
2022-10-09T15:49:46.598Z,5.20
2022-10-09T15:52:15.435Z,5.80
2022-10-09T15:54:41.710Z,5.53
2022-10-09T15:57:08.052Z,5.23
2022-10-09T15:59:37.170Z,6.43
2022-10-09T16:02:03.791Z,5.20
2022-10-09T16:04:30.148Z,5.57
2022-10-09T16:06:57.997Z,5.93
2022-10-09T16:09:24.286Z,7.10
2022-10-09T16:11:50.561Z,6.57
2022-10-09T16:14:16.834Z,6.40
2022-10-09T16:16:43.109Z,5.43
2022-10-09T16:19:09.413Z,5.53
2022-10-09T16:21:35.723Z,5.93
2022-10-09T16:24:02.030Z,5.70
2022-10-09T16:26:29.257Z,5.50
2022-10-09T16:28:55.694Z,6.50
2022-10-09T16:31:24.386Z,5.53
2022-10-09T16:33:50.739Z,5.70
2022-10-09T16:36:17.168Z,5.63
2022-10-09T16:38:43.875Z,6.77
2022-10-09T16:41:17.975Z,6.27
2022-10-09T16:43:45.991Z,5.80
2022-10-09T16:46:28.898Z,6.13
2022-10-09T16:48:57.074Z,6.73
2022-10-09T16:51:29.123Z,6.40
2022-10-09T16:53:58.615Z,8.00
2022-10-09T16:56:29.526Z,6.47
2022-10-09T16:58:57.676Z,6.27
2022-10-09T17:01:25.130Z,6.13
2022-10-09T17:03:54.088Z,5.20
2022-10-09T17:06:20.877Z,6.33
2022-10-09T17:08:47.999Z,6.33
2022-10-09T17:11:15.071Z,5.47
2022-10-09T17:13:41.646Z,8.17
2022-10-09T17:16:15.694Z,5.63
2022-10-09T17:18:44.713Z,5.90
2022-10-09T17:21:16.497Z,6.17
2022-10-09T17:23:42.822Z,5.70
2022-10-09T17:26:15.337Z,7.20
2022-10-09T17:28:42.566Z,7.63
2022-10-09T17:31:14.013Z,6.87
2022-10-09T17:33:42.831Z,7.73
2022-10-09T17:36:10.579Z,7.70
2022-10-09T17:38:37.131Z,7.60
2022-10-09T17:41:08.758Z,6.87
2022-10-09T17:43:35.371Z,6.93
2022-10-09T17:46:01.886Z,7.67
2022-10-09T17:48:29.640Z,6.73
2022-10-09T17:50:57.775Z,7.30
2022-10-09T17:53:25.193Z,7.57
2022-10-09T17:55:53.300Z,8.80
2022-10-09T17:58:21.513Z,9.80
2022-10-09T18:00:48.787Z,7.90
2022-10-09T18:03:16.538Z,7.97
2022-10-09T18:05:48.949Z,6.60
2022-10-09T18:08:18.038Z,8.83
2022-10-09T18:10:44.899Z,7.90
2022-10-09T18:13:11.742Z,8.37
2022-10-09T18:15:43.253Z,7.17
2022-10-09T18:18:10.943Z,7.00
2022-10-09T18:20:39.197Z,9.17
2022-10-09T18:23:06.878Z,7.40
2022-10-09T18:25:33.391Z,8.40
2022-10-09T18:28:00.171Z,7.13
2022-10-09T18:30:27.488Z,7.20
2022-10-09T18:32:53.800Z,7.50
2022-10-09T18:35:20.140Z,6.80
2022-10-09T18:37:46.467Z,7.47
2022-10-09T18:40:13.922Z,8.07
2022-10-09T18:42:40.247Z,7.53
2022-10-09T18:45:07.590Z,8.23
2022-10-09T18:47:35.591Z,8.27
2022-10-09T18:50:06.363Z,9.23
2022-10-09T18:52:33.769Z,8.87
2022-10-09T18:55:00.891Z,8.93
2022-10-09T18:57:27.278Z,8.20
2022-10-09T18:59:55.399Z,8.03
2022-10-09T19:02:26.145Z,8.20
2022-10-09T19:04:53.885Z,8.83
2022-10-09T19:07:20.357Z,12.53
2022-10-09T19:09:51.368Z,11.30
2022-10-09T19:12:21.311Z,9.60
2022-10-09T19:14:47.669Z,8.90
2022-10-09T19:17:14.465Z,7.43
2022-10-09T19:19:41.083Z,8.83
2022-10-09T19:22:09.714Z,8.80
2022-10-09T19:24:39.223Z,8.40
2022-10-09T19:27:06.492Z,9.03
2022-10-09T19:29:33.090Z,7.53
2022-10-09T19:31:59.465Z,8.97
2022-10-09T19:34:25.812Z,8.63
2022-10-09T19:36:52.215Z,21.43
2022-10-09T19:39:19.386Z,16.53
2022-10-09T19:41:53.592Z,10.43
2022-10-09T19:44:19.941Z,7.80
2022-10-09T19:46:51.616Z,8.67
2022-10-09T19:49:18.369Z,8.63
2022-10-09T19:51:45.816Z,7.97
2022-10-09T19:54:12.281Z,8.67
2022-10-09T19:56:40.162Z,8.60
2022-10-09T19:59:17.277Z,8.53
2022-10-09T20:01:43.799Z,9.20
2022-10-09T20:04:10.916Z,8.87
2022-10-09T20:06:42.603Z,10.10
2022-10-09T20:09:15.587Z,8.80
2022-10-09T20:11:48.654Z,8.67
2022-10-09T20:14:15.487Z,7.87
2022-10-09T20:16:41.983Z,7.60
2022-10-09T20:19:08.394Z,8.80
2022-10-09T20:21:38.379Z,8.80
2022-10-09T20:24:06.266Z,8.90
2022-10-09T20:26:33.091Z,8.73
2022-10-09T20:28:59.993Z,9.20
2022-10-09T20:31:30.141Z,8.67
2022-10-09T20:33:56.743Z,9.97
2022-10-09T20:36:42.292Z,8.53
2022-10-09T20:39:15.169Z,9.07
2022-10-09T20:41:54.774Z,9.80
2022-10-09T20:44:21.944Z,9.77
2022-10-09T20:46:58.424Z,11.73
2022-10-09T20:49:32.418Z,11.07
2022-10-09T20:51:58.905Z,11.60
2022-10-09T20:54:27.851Z,10.90
2022-10-09T20:57:03.980Z,10.53
2022-10-09T20:59:30.350Z,9.80
2022-10-09T21:01:57.119Z,10.10
2022-10-09T21:04:25.912Z,11.90
2022-10-09T21:06:54.918Z,11.87
2022-10-09T21:09:21.633Z,18.17
2022-10-09T21:11:48.421Z,13.50
2022-10-09T21:14:15.326Z,11.87
2022-10-09T21:16:42.026Z,10.40
2022-10-09T21:19:10.704Z,9.80
2022-10-09T21:21:37.006Z,11.90
2022-10-09T21:24:03.616Z,11.40
2022-10-09T21:26:35.141Z,9.87
2022-10-09T21:29:04.058Z,10.20
2022-10-09T21:31:31.598Z,11.67
2022-10-09T21:33:59.932Z,12.63
2022-10-09T21:37:16.391Z,13.03
2022-10-09T21:39:34.709Z,10.73
2022-10-09T21:42:01.011Z,10.10
2022-10-09T21:44:27.531Z,11.00
2022-10-09T21:46:53.911Z,10.77
2022-10-09T21:49:23.042Z,11.20
2022-10-09T21:51:49.742Z,10.37
2022-10-09T21:54:16.479Z,10.00
2022-10-09T21:56:42.984Z,10.47
2022-10-09T21:59:09.776Z,10.90
2022-10-09T22:01:36.256Z,10.10
2022-10-09T22:04:02.921Z,10.60
2022-10-09T22:06:29.264Z,10.67
2022-10-09T22:08:55.665Z,10.27
2022-10-09T22:11:22.127Z,10.30
2022-10-09T22:13:48.454Z,11.50
2022-10-09T22:16:15.457Z,10.83
2022-10-09T22:18:42.495Z,10.53
2022-10-09T22:21:13.635Z,10.33
2022-10-09T22:23:40.620Z,10.00
2022-10-09T22:26:11.173Z,9.40
2022-10-09T22:28:37.854Z,10.30
2022-10-09T22:31:13.540Z,10.40
2022-10-09T22:33:40.046Z,9.70
2022-10-09T22:36:12.321Z,9.87
2022-10-09T22:38:40.012Z,9.60
2022-10-09T22:41:10.211Z,10.40
2022-10-09T22:43:37.731Z,11.47
2022-10-09T22:46:06.316Z,9.73
2022-10-09T22:48:32.706Z,10.27
2022-10-09T22:51:01.764Z,10.50
2022-10-09T22:53:28.067Z,9.60
2022-10-09T22:55:54.387Z,9.57
2022-10-09T22:58:20.698Z,9.40
2022-10-09T23:00:47.329Z,9.87
2022-10-09T23:03:13.698Z,10.00
2022-10-09T23:05:39.985Z,10.53
2022-10-09T23:08:06.267Z,8.77
2022-10-09T23:10:37.237Z,9.80
2022-10-09T23:13:03.940Z,11.30
2022-10-09T23:15:30.501Z,10.13
2022-10-09T23:17:56.799Z,9.73
2022-10-09T23:20:23.089Z,10.37
2022-10-09T23:22:49.717Z,9.70
2022-10-09T23:25:16.189Z,11.10
2022-10-09T23:27:42.500Z,10.53
2022-10-09T23:30:09.278Z,11.63
2022-10-09T23:32:35.590Z,9.97
2022-10-09T23:35:01.871Z,10.30
2022-10-09T23:37:28.197Z,10.37
2022-10-09T23:39:54.509Z,10.83
2022-10-09T23:42:20.850Z,10.03
2022-10-09T23:44:47.212Z,9.93
2022-10-09T23:47:13.637Z,9.90
2022-10-09T23:49:40.115Z,9.70
2022-10-09T23:52:06.416Z,9.40
2022-10-09T23:54:32.905Z,10.90
2022-10-09T23:56:59.306Z,9.70
2022-10-09T23:59:25.597Z,9.93
